createdAt,value
2024-05-09T00:01:07.338Z,89.84
2024-05-09T00:03:39.544Z,90.02
2024-05-09T00:06:10.723Z,90.04
2024-05-09T00:08:40.553Z,90.18
2024-05-09T00:11:10.179Z,89.70
2024-05-09T00:13:39.665Z,89.72
2024-05-09T00:16:09.524Z,90.34
2024-05-09T00:18:41.801Z,90.15
2024-05-09T00:21:12.151Z,90.47
2024-05-09T00:23:41.845Z,90.07
2024-05-09T00:26:11.406Z,90.23
2024-05-09T00:28:41.029Z,90.22
2024-05-09T00:31:10.478Z,90.16
2024-05-09T00:33:42.823Z,89.79
2024-05-09T00:36:12.601Z,90.13
2024-05-09T00:38:42.147Z,90.32
2024-05-09T00:41:11.750Z,90.27
2024-05-09T00:43:41.192Z,90.14
2024-05-09T00:46:12.467Z,90.26
2024-05-09T00:48:44.723Z,90.12
2024-05-09T00:51:14.720Z,89.86
2024-05-09T00:53:44.614Z,89.99
2024-05-09T00:56:15.545Z,90.02
2024-05-09T00:58:45.938Z,90.04
2024-05-09T01:01:16.082Z,90.02
2024-05-09T01:03:50.947Z,90.13
2024-05-09T01:06:23.330Z,90.25
2024-05-09T01:08:52.804Z,90.34
2024-05-09T01:11:22.849Z,90.00
2024-05-09T01:13:52.465Z,90.44
2024-05-09T01:16:22.073Z,89.95
2024-05-09T01:18:54.384Z,90.41
2024-05-09T01:21:24.208Z,90.17
2024-05-09T01:23:56.402Z,90.38
2024-05-09T01:26:25.974Z,90.39
2024-05-09T01:28:55.629Z,90.44
2024-05-09T01:31:25.081Z,89.94
2024-05-09T01:33:54.590Z,90.04
2024-05-09T01:36:24.052Z,89.85
2024-05-09T01:38:56.129Z,90.02
2024-05-09T01:41:25.660Z,90.36
2024-05-09T01:43:55.261Z,90.25
2024-05-09T01:46:24.707Z,89.93
2024-05-09T01:48:54.326Z,89.90
2024-05-09T01:51:23.842Z,90.00
2024-05-09T01:53:57.075Z,89.77
2024-05-09T01:56:26.617Z,90.10
2024-05-09T01:58:56.234Z,89.94
2024-05-09T02:01:25.744Z,90.43
2024-05-09T02:03:55.711Z,90.10
2024-05-09T02:06:25.336Z,89.93
2024-05-09T02:08:57.810Z,90.34
2024-05-09T02:11:27.313Z,90.26
2024-05-09T02:13:57.212Z,90.33
2024-05-09T02:16:26.658Z,89.88
2024-05-09T02:18:56.554Z,90.24
2024-05-09T02:21:26.086Z,90.35
2024-05-09T02:23:58.230Z,89.87
2024-05-09T02:26:27.756Z,90.08
2024-05-09T02:28:57.566Z,90.21
2024-05-09T02:31:24.425Z,90.15
2024-05-09T02:33:54.386Z,90.02
2024-05-09T02:36:24.089Z,90.11
2024-05-09T02:38:50.905Z,90.26
2024-05-09T02:41:23.100Z,90.14
2024-05-09T02:43:50.155Z,90.16
2024-05-09T02:46:19.726Z,90.12
2024-05-09T02:48:46.678Z,90.30
2024-05-09T02:51:16.307Z,90.18
2024-05-09T02:53:43.242Z,89.99
2024-05-09T02:56:12.951Z,89.97
2024-05-09T02:58:42.405Z,90.01
2024-05-09T03:01:11.986Z,90.11
2024-05-09T03:03:39.017Z,90.17
2024-05-09T03:06:08.644Z,90.16
2024-05-09T03:08:35.543Z,90.20
2024-05-09T03:11:05.201Z,89.91
2024-05-09T03:13:32.361Z,90.40
2024-05-09T03:16:05.032Z,90.01
2024-05-09T03:18:31.946Z,89.90
2024-05-09T03:21:01.838Z,90.21
2024-05-09T03:23:28.747Z,89.98
2024-05-09T03:25:58.403Z,90.05
2024-05-09T03:28:25.289Z,89.96
2024-05-09T03:30:54.906Z,89.91
2024-05-09T03:33:24.730Z,89.84
2024-05-09T03:35:54.372Z,89.98
2024-05-09T03:38:23.956Z,89.66
2024-05-09T03:40:53.443Z,89.94
2024-05-09T03:43:23.030Z,89.70
2024-05-09T03:45:52.940Z,90.22
2024-05-09T03:48:20.419Z,90.00
2024-05-09T03:50:52.644Z,89.86
2024-05-09T03:53:20.269Z,90.02
2024-05-09T03:55:49.913Z,89.98
2024-05-09T03:58:16.777Z,90.01
2024-05-09T04:00:46.327Z,89.59
2024-05-09T04:03:13.719Z,89.80
2024-05-09T04:05:44.893Z,89.91
2024-05-09T04:08:15.903Z,89.56
2024-05-09T04:10:45.908Z,89.42
2024-05-09T04:13:13.029Z,89.65
2024-05-09T04:15:42.502Z,89.84
2024-05-09T04:18:09.699Z,89.37
2024-05-09T04:20:40.972Z,89.72
2024-05-09T04:23:11.810Z,89.61
2024-05-09T04:25:46.733Z,89.59
2024-05-09T04:28:13.735Z,89.67
2024-05-09T04:30:43.533Z,89.67
2024-05-09T04:33:12.703Z,89.81
2024-05-09T04:35:44.964Z,89.63
2024-05-09T04:38:13.473Z,89.74
2024-05-09T04:40:46.064Z,89.46
2024-05-09T04:43:18.973Z,89.35
2024-05-09T04:45:48.914Z,89.20
2024-05-09T04:48:16.607Z,89.32
2024-05-09T04:50:46.517Z,89.15
2024-05-09T04:53:16.059Z,88.88
2024-05-09T04:55:48.383Z,89.47
2024-05-09T04:58:15.247Z,89.34
2024-05-09T05:00:45.568Z,89.22
2024-05-09T05:03:15.000Z,89.27
2024-05-09T05:05:46.672Z,89.18
2024-05-09T05:08:14.705Z,88.74
2024-05-09T05:10:44.972Z,88.82
2024-05-09T05:13:20.927Z,88.74
2024-05-09T05:15:55.801Z,89.09
2024-05-09T05:18:24.215Z,88.38
2024-05-09T05:20:54.075Z,88.42
2024-05-09T05:23:22.703Z,88.61
2024-05-09T05:25:53.906Z,88.59
2024-05-09T05:28:24.137Z,88.19
2024-05-09T05:30:53.629Z,88.30
2024-05-09T05:33:22.581Z,87.90
2024-05-09T05:35:53.064Z,88.02
2024-05-09T05:38:23.764Z,87.83
2024-05-09T05:40:55.768Z,87.60
2024-05-09T05:43:25.429Z,86.69
2024-05-09T05:45:54.863Z,86.85
2024-05-09T05:48:22.103Z,86.62
2024-05-09T05:50:51.706Z,86.45
2024-05-09T05:53:18.862Z,86.59
2024-05-09T05:55:48.339Z,86.57
2024-05-09T05:58:15.494Z,85.75
2024-05-09T06:00:48.090Z,85.67
2024-05-09T06:03:15.663Z,84.75
2024-05-09T06:05:46.045Z,85.26
2024-05-09T06:08:13.277Z,84.37
2024-05-09T06:10:42.961Z,83.82
2024-05-09T06:13:11.400Z,83.70
2024-05-09T06:15:41.602Z,83.31
2024-05-09T06:18:12.591Z,83.39
2024-05-09T06:20:44.069Z,82.89
2024-05-09T06:23:12.383Z,82.04
2024-05-09T06:25:42.930Z,81.59
2024-05-09T06:28:09.883Z,80.57
2024-05-09T06:30:42.338Z,79.47
2024-05-09T06:33:14.793Z,79.71
2024-05-09T06:35:46.309Z,79.55
2024-05-09T06:38:13.588Z,80.33
2024-05-09T06:40:44.449Z,79.96
2024-05-09T06:43:12.289Z,80.13
2024-05-09T06:45:41.760Z,80.18
2024-05-09T06:48:09.860Z,79.58
2024-05-09T06:50:43.782Z,79.50
2024-05-09T06:53:10.939Z,78.73
2024-05-09T06:55:40.384Z,77.53
2024-05-09T06:58:09.030Z,77.72
2024-05-09T07:00:40.875Z,77.26
2024-05-09T07:03:12.962Z,75.60
2024-05-09T07:05:44.706Z,75.53
2024-05-09T07:08:16.031Z,75.31
2024-05-09T07:10:43.457Z,75.96
2024-05-09T07:13:13.726Z,76.29
2024-05-09T07:15:41.744Z,76.29
2024-05-09T07:18:13.945Z,76.29
2024-05-09T07:20:44.081Z,75.81
2024-05-09T07:23:14.253Z,75.93
2024-05-09T07:25:41.934Z,76.52
2024-05-09T07:28:13.772Z,74.48
2024-05-09T07:30:40.875Z,73.08
2024-05-09T07:33:12.114Z,72.10
2024-05-09T07:35:39.371Z,72.95
2024-05-09T07:38:11.570Z,72.75
2024-05-09T07:40:39.315Z,71.77
2024-05-09T07:43:11.513Z,71.57
2024-05-09T07:45:48.569Z,71.83
2024-05-09T07:52:38.030Z,70.22
2024-05-09T07:53:50.010Z,69.97
2024-05-09T07:56:22.116Z,69.67
2024-05-09T07:58:54.086Z,68.36
2024-05-09T08:01:21.674Z,67.64
2024-05-09T08:03:52.192Z,67.61
2024-05-09T08:06:19.125Z,68.25
2024-05-09T08:08:51.975Z,68.31
2024-05-09T08:11:19.643Z,67.54
2024-05-09T08:13:49.171Z,68.43
2024-05-09T08:16:16.281Z,67.85
2024-05-09T08:18:45.849Z,68.07
2024-05-09T08:21:12.747Z,67.41
2024-05-09T08:23:42.298Z,67.11
2024-05-09T08:26:11.859Z,67.02
2024-05-09T08:28:41.317Z,66.75
2024-05-09T08:31:08.241Z,66.12
2024-05-09T08:33:37.852Z,65.40
2024-05-09T08:36:05.072Z,63.64
2024-05-09T08:38:34.528Z,64.33
2024-05-09T08:41:03.874Z,62.21
2024-05-09T08:43:38.243Z,62.73
2024-05-09T08:46:07.869Z,61.93
2024-05-09T08:48:39.469Z,63.28
2024-05-09T08:51:06.757Z,59.96
2024-05-09T08:53:36.266Z,61.72
2024-05-09T08:56:03.268Z,60.39
2024-05-09T08:58:37.668Z,61.66
2024-05-09T09:01:05.175Z,58.74
2024-05-09T09:03:36.578Z,58.00
2024-05-09T09:06:06.775Z,58.29
2024-05-09T09:08:36.272Z,57.01
2024-05-09T09:11:04.105Z,59.02
2024-05-09T09:13:36.242Z,55.98
2024-05-09T09:16:03.940Z,55.74
2024-05-09T09:18:34.675Z,55.47
2024-05-09T09:21:03.167Z,57.08
2024-05-09T09:23:32.741Z,58.05
2024-05-09T09:25:59.666Z,57.11
2024-05-09T09:28:29.537Z,56.36
2024-05-09T09:31:04.656Z,58.95
2024-05-09T09:33:36.304Z,57.98
2024-05-09T09:36:04.704Z,59.08
2024-05-09T09:38:38.750Z,57.48
2024-05-09T09:41:07.633Z,58.97
2024-05-09T09:43:39.013Z,58.52
2024-05-09T09:46:12.316Z,58.11
2024-05-09T09:48:44.161Z,58.59
2024-05-09T09:51:11.558Z,58.40
2024-05-09T09:53:42.518Z,58.92
2024-05-09T09:56:10.442Z,58.40
2024-05-09T09:58:41.610Z,58.12
2024-05-09T10:01:11.258Z,57.60
2024-05-09T10:03:41.456Z,57.69
2024-05-09T10:06:11.120Z,57.69
2024-05-09T10:08:41.282Z,58.06
2024-05-09T10:11:08.244Z,57.61
2024-05-09T10:13:38.715Z,57.49
2024-05-09T10:16:12.390Z,57.50
2024-05-09T10:18:42.825Z,57.48
2024-05-09T10:21:16.749Z,57.59
2024-05-09T10:23:47.397Z,56.07
2024-05-09T10:26:14.264Z,57.68
2024-05-09T10:28:45.720Z,57.84
2024-05-09T10:31:16.633Z,58.69
2024-05-09T10:33:51.572Z,57.75
2024-05-09T10:36:21.035Z,58.20
2024-05-09T10:38:53.585Z,57.49
2024-05-09T10:41:21.659Z,58.45
2024-05-09T10:43:52.209Z,57.86
2024-05-09T10:46:22.096Z,56.43
2024-05-09T10:48:52.444Z,57.23
2024-05-09T10:51:19.508Z,58.36
2024-05-09T10:53:52.442Z,55.91
2024-05-09T10:56:19.450Z,57.55
2024-05-09T10:58:48.877Z,55.73
2024-05-09T11:01:16.826Z,56.66
2024-05-09T11:03:52.332Z,57.60
2024-05-09T11:06:19.501Z,54.78
2024-05-09T11:08:49.695Z,56.13
2024-05-09T11:11:16.930Z,55.84
2024-05-09T11:13:46.392Z,55.83
2024-05-09T11:16:19.242Z,56.77
2024-05-09T11:18:59.538Z,56.91
2024-05-09T11:21:27.021Z,55.92
2024-05-09T11:23:57.105Z,58.39
2024-05-09T11:26:25.504Z,57.20
2024-05-09T11:28:55.163Z,55.73
2024-05-09T11:31:22.528Z,56.43
2024-05-09T11:33:52.437Z,55.00
2024-05-09T11:36:22.133Z,56.93
2024-05-09T11:38:51.549Z,54.95
2024-05-09T11:41:19.087Z,56.42
2024-05-09T11:43:48.600Z,54.77
2024-05-09T11:46:15.718Z,54.41
2024-05-09T11:48:45.377Z,55.07
2024-05-09T11:51:12.405Z,54.05
2024-05-09T11:53:44.480Z,55.68
2024-05-09T11:56:12.028Z,53.83
2024-05-09T11:58:41.708Z,54.31
2024-05-09T12:01:08.981Z,53.09
2024-05-09T12:03:39.500Z,52.06
2024-05-09T12:06:06.502Z,53.76
2024-05-09T12:08:36.346Z,52.98
2024-05-09T12:11:06.393Z,54.41
2024-05-09T12:13:35.943Z,53.95
2024-05-09T12:16:02.870Z,53.62
2024-05-09T12:18:33.924Z,54.14
2024-05-09T12:21:01.019Z,54.20
2024-05-09T12:23:30.803Z,54.43
2024-05-09T12:25:58.039Z,54.50
2024-05-09T12:28:30.329Z,54.36
2024-05-09T12:30:57.258Z,55.29
2024-05-09T12:33:26.937Z,53.90
2024-05-09T12:35:53.935Z,54.83
2024-05-09T12:38:23.437Z,53.92
2024-05-09T12:40:50.690Z,55.97
2024-05-09T12:43:20.578Z,54.80
2024-05-09T12:45:50.145Z,52.96
2024-05-09T12:48:19.955Z,53.10
2024-05-09T12:50:46.891Z,52.38
2024-05-09T12:53:16.706Z,52.28
2024-05-09T12:55:53.026Z,53.25
2024-05-09T12:58:26.882Z,50.26
2024-05-09T13:00:56.513Z,49.32
2024-05-09T13:03:26.062Z,50.35
2024-05-09T13:05:53.870Z,50.51
2024-05-09T13:08:23.730Z,50.78
2024-05-09T13:10:51.139Z,50.34
2024-05-09T13:13:20.739Z,51.84
2024-05-09T13:15:48.039Z,50.36
2024-05-09T13:18:20.364Z,51.18
2024-05-09T13:20:47.246Z,49.76
2024-05-09T13:23:16.742Z,49.96
2024-05-09T13:25:43.762Z,50.51
2024-05-09T13:28:13.301Z,49.10
2024-05-09T13:30:42.087Z,49.95
2024-05-09T13:33:13.088Z,48.17
2024-05-09T13:35:47.558Z,49.04
2024-05-09T13:38:21.102Z,48.19
2024-05-09T13:40:49.043Z,49.30
2024-05-09T13:43:19.234Z,49.01
2024-05-09T13:45:46.800Z,48.50
2024-05-09T13:48:16.669Z,49.87
2024-05-09T13:50:46.272Z,48.43
2024-05-09T13:53:15.860Z,49.14
2024-05-09T13:55:42.995Z,49.91
2024-05-09T13:58:12.635Z,48.95
2024-05-09T14:00:46.331Z,48.16
2024-05-09T14:03:20.212Z,48.22
2024-05-09T14:05:51.744Z,48.62
2024-05-09T14:08:22.709Z,49.13
2024-05-09T14:10:50.482Z,49.26
2024-05-09T14:13:20.306Z,49.82
2024-05-09T14:15:47.578Z,49.75
2024-05-09T14:18:17.407Z,49.82
2024-05-09T14:20:44.314Z,48.24
2024-05-09T14:23:17.209Z,49.83
2024-05-09T14:25:45.524Z,49.25
2024-05-09T14:28:16.278Z,49.43
2024-05-09T14:30:43.349Z,50.78
2024-05-09T14:33:16.316Z,48.41
2024-05-09T14:35:43.217Z,46.31
2024-05-09T14:38:12.780Z,47.79
2024-05-09T14:40:44.026Z,48.04
2024-05-09T14:43:15.157Z,47.97
2024-05-09T14:45:43.382Z,45.89
2024-05-09T14:48:14.575Z,45.67
2024-05-09T14:50:42.336Z,46.73
2024-05-09T14:53:13.862Z,45.68
2024-05-09T14:55:44.083Z,46.29
2024-05-09T14:58:14.629Z,44.85
2024-05-09T15:00:46.668Z,45.07
2024-05-09T15:03:20.645Z,45.98
2024-05-09T15:05:48.404Z,47.43
2024-05-09T15:08:20.109Z,48.29
2024-05-09T15:10:50.640Z,45.71
2024-05-09T15:13:20.663Z,42.88
2024-05-09T15:15:48.185Z,43.88
2024-05-09T15:18:18.338Z,40.21
2024-05-09T15:20:45.878Z,41.47
2024-05-09T15:23:15.518Z,40.72
2024-05-09T15:25:44.569Z,41.49
2024-05-09T15:28:16.895Z,40.38
2024-05-09T15:30:46.222Z,39.74
2024-05-09T15:33:16.955Z,40.42
2024-05-09T15:35:46.216Z,42.11
2024-05-09T15:38:17.868Z,38.84
2024-05-09T15:40:45.183Z,40.05
2024-05-09T15:43:17.400Z,39.46
2024-05-09T15:45:44.533Z,38.32
2024-05-09T15:48:14.382Z,40.47
2024-05-09T15:50:42.692Z,40.83
2024-05-09T15:53:13.833Z,42.21
2024-05-09T15:55:41.610Z,43.34
2024-05-09T15:58:11.646Z,44.60
2024-05-09T16:00:46.199Z,45.49
2024-05-09T16:03:15.272Z,46.14
2024-05-09T16:05:46.975Z,44.49
2024-05-09T16:08:15.250Z,43.48
2024-05-09T16:10:46.298Z,41.21
2024-05-09T16:13:14.890Z,40.48
2024-05-09T16:15:47.329Z,42.88
2024-05-09T16:18:14.568Z,40.77
2024-05-09T16:20:45.663Z,41.94
2024-05-09T16:23:14.745Z,41.74
2024-05-09T16:25:46.215Z,39.79
2024-05-09T16:28:13.695Z,39.11
2024-05-09T16:30:43.397Z,38.04
2024-05-09T16:33:13.323Z,38.20
2024-05-09T16:35:43.163Z,39.37
2024-05-09T16:38:10.496Z,39.80
2024-05-09T16:40:41.333Z,40.10
2024-05-09T16:43:09.786Z,40.69
2024-05-09T16:45:40.138Z,39.51
2024-05-09T16:48:08.453Z,40.84
2024-05-09T16:50:40.736Z,39.80
2024-05-09T16:53:07.792Z,41.37
2024-05-09T16:55:37.493Z,41.11
2024-05-09T16:58:06.533Z,42.01
2024-05-09T17:00:41.658Z,43.44
2024-05-09T17:03:12.630Z,42.78
2024-05-09T17:05:47.226Z,43.06
2024-05-09T17:08:16.328Z,44.62
2024-05-09T17:10:46.013Z,45.17
2024-05-09T17:13:15.763Z,47.23
2024-05-09T17:15:45.495Z,47.03
2024-05-09T17:18:12.589Z,47.01
2024-05-09T17:20:45.100Z,46.58
2024-05-09T17:23:13.939Z,46.66
2024-05-09T17:25:45.154Z,46.68
2024-05-09T17:28:12.500Z,46.78
2024-05-09T17:30:43.011Z,47.31
2024-05-09T17:33:11.194Z,48.22
2024-05-09T17:35:41.938Z,48.09
2024-05-09T17:38:11.583Z,49.00
2024-05-09T17:40:41.206Z,50.45
2024-05-09T17:43:09.983Z,49.79
2024-05-09T17:45:41.283Z,49.76
2024-05-09T17:48:10.777Z,49.43
2024-05-09T17:50:41.914Z,50.67
2024-05-09T17:53:11.955Z,49.91
2024-05-09T17:55:41.871Z,50.76
2024-05-09T17:58:09.784Z,51.00
2024-05-09T18:00:41.931Z,51.61
2024-05-09T18:03:11.362Z,51.57
2024-05-09T18:05:42.724Z,52.29
2024-05-09T18:08:13.783Z,53.48
2024-05-09T18:10:44.312Z,53.96
2024-05-09T18:13:12.479Z,54.10
2024-05-09T18:15:42.378Z,53.83
2024-05-09T18:18:10.653Z,54.03
2024-05-09T18:20:44.521Z,55.33
2024-05-09T18:23:17.983Z,56.57
2024-05-09T18:25:48.706Z,57.04
2024-05-09T18:28:16.235Z,57.83
2024-05-09T18:30:46.691Z,58.22
2024-05-09T18:33:13.963Z,58.31
2024-05-09T18:35:45.375Z,58.50
2024-05-09T18:38:15.211Z,58.75
2024-05-09T18:40:48.136Z,59.41
2024-05-09T18:43:16.266Z,59.84
2024-05-09T18:45:46.235Z,59.91
2024-05-09T18:48:13.585Z,59.90
2024-05-09T18:50:43.240Z,60.44
2024-05-09T18:53:12.158Z,60.18
2024-05-09T18:55:45.631Z,60.40
2024-05-09T18:58:12.595Z,61.32
2024-05-09T19:00:45.332Z,61.47
2024-05-09T19:03:16.904Z,61.52
2024-05-09T19:05:45.774Z,61.70
2024-05-09T19:08:16.034Z,62.19
2024-05-09T19:10:46.225Z,62.82
2024-05-09T19:13:16.585Z,64.55
2024-05-09T19:15:44.294Z,65.71
2024-05-09T19:18:15.647Z,66.16
2024-05-09T19:20:43.296Z,66.30
2024-05-09T19:23:12.984Z,66.43
2024-05-09T19:25:39.976Z,67.31
2024-05-09T19:28:12.482Z,67.78
2024-05-09T19:30:42.122Z,68.86
2024-05-09T19:33:14.012Z,68.78
2024-05-09T19:35:42.635Z,70.10
2024-05-09T19:38:12.346Z,70.83
2024-05-09T19:40:39.311Z,71.27
2024-05-09T19:43:09.581Z,72.26
2024-05-09T19:45:39.383Z,72.27
2024-05-09T19:48:09.987Z,72.68
2024-05-09T19:50:42.288Z,74.04
2024-05-09T19:53:14.165Z,73.90
2024-05-09T19:55:41.294Z,74.10
2024-05-09T19:58:12.066Z,74.71
2024-05-09T20:00:43.831Z,74.40
2024-05-09T20:03:16.187Z,75.11
2024-05-09T20:05:44.694Z,75.07
2024-05-09T20:08:14.716Z,74.96
2024-05-09T20:10:41.791Z,74.79
2024-05-09T20:13:11.363Z,74.94
2024-05-09T20:15:38.791Z,75.03
2024-05-09T20:18:11.340Z,75.51
2024-05-09T20:20:41.797Z,75.13
2024-05-09T20:23:13.657Z,75.72
2024-05-09T20:25:40.881Z,76.04
2024-05-09T20:28:11.002Z,76.46
2024-05-09T20:30:38.401Z,76.45
2024-05-09T20:33:12.363Z,76.31
2024-05-09T20:35:39.429Z,76.75
2024-05-09T20:38:09.072Z,77.03
2024-05-09T20:40:38.661Z,76.74
2024-05-09T20:43:10.699Z,77.15
2024-05-09T20:45:38.256Z,77.30
2024-05-09T20:48:11.857Z,77.84
2024-05-09T20:50:41.553Z,77.90
2024-05-09T20:53:13.920Z,78.10
2024-05-09T20:55:41.877Z,78.59
2024-05-09T20:58:12.012Z,78.75
2024-05-09T21:00:42.777Z,78.65
2024-05-09T21:03:17.935Z,79.02
2024-05-09T21:05:45.349Z,79.12
2024-05-09T21:08:15.072Z,79.33
2024-05-09T21:10:42.103Z,79.49
2024-05-09T21:13:11.645Z,79.46
2024-05-09T21:15:38.716Z,79.56
2024-05-09T21:18:08.524Z,79.74
2024-05-09T21:20:38.166Z,80.06
2024-05-09T21:23:07.986Z,80.06
2024-05-09T21:25:34.959Z,79.80
2024-05-09T21:28:04.818Z,80.28
2024-05-09T21:30:40.356Z,80.66
2024-05-09T21:33:13.990Z,80.62
2024-05-09T21:35:45.095Z,80.50
2024-05-09T21:38:16.002Z,80.57
2024-05-09T21:40:43.364Z,80.53
2024-05-09T21:43:13.040Z,80.64
2024-05-09T21:45:40.072Z,80.83
2024-05-09T21:48:10.773Z,80.55
2024-05-09T21:50:41.116Z,80.64
2024-05-09T21:53:14.522Z,80.79
2024-05-09T21:55:41.884Z,80.49
2024-05-09T21:58:11.620Z,80.63
2024-05-09T22:00:40.301Z,81.42
2024-05-09T22:03:11.367Z,81.19
2024-05-09T22:05:41.572Z,81.29
2024-05-09T22:08:13.902Z,80.58
2024-05-09T22:10:40.929Z,80.06
2024-05-09T22:13:10.655Z,80.18
2024-05-09T22:15:39.965Z,81.46
2024-05-09T22:18:11.649Z,82.73
2024-05-09T22:20:44.470Z,82.10
2024-05-09T22:23:18.116Z,82.61
2024-05-09T22:25:45.041Z,82.69
2024-05-09T22:28:17.194Z,82.83
2024-05-09T22:30:46.776Z,83.22
2024-05-09T22:33:17.497Z,83.27
2024-05-09T22:35:44.461Z,83.31
2024-05-09T22:38:13.918Z,83.51
2024-05-09T22:40:48.300Z,83.37
2024-05-09T22:43:23.415Z,83.16
2024-05-09T22:45:52.118Z,83.11
2024-05-09T22:48:22.177Z,82.98
2024-05-09T22:50:49.224Z,83.14
2024-05-09T22:53:19.319Z,83.30
2024-05-09T22:55:48.883Z,83.38
2024-05-09T22:58:19.064Z,83.48
2024-05-09T23:00:46.228Z,83.35
2024-05-09T23:03:16.626Z,83.66
2024-05-09T23:05:43.646Z,83.42
2024-05-09T23:08:13.229Z,83.86
2024-05-09T23:10:40.208Z,83.91
2024-05-09T23:13:12.317Z,84.09
2024-05-09T23:15:39.517Z,84.34
2024-05-09T23:18:09.704Z,84.66
2024-05-09T23:20:39.245Z,84.52
2024-05-09T23:23:11.525Z,84.35
2024-05-09T23:25:40.992Z,84.16
2024-05-09T23:28:13.330Z,84.13
2024-05-09T23:30:41.457Z,84.47
2024-05-09T23:33:13.715Z,84.37
2024-05-09T23:35:42.076Z,85.24
2024-05-09T23:38:11.842Z,84.85
2024-05-09T23:40:40.949Z,84.96
2024-05-09T23:43:14.622Z,84.63
2024-05-09T23:45:42.406Z,84.81
2024-05-09T23:48:12.539Z,85.06
2024-05-09T23:50:40.611Z,85.08
2024-05-09T23:53:11.200Z,84.96
2024-05-09T23:55:39.260Z,84.93
2024-05-09T23:58:09.291Z,84.85
